Terminal Aerodrome Forecast
Issued by NWS

Home | Current Version | Previous Version | Text Only | Print | Product List | Glossary On
Versions: 1 2 3 4 5 6 7 8 9 10 11 12 13 14 15 16
209
FTUS42 KTBW 241127
TAFPGD
TAF
KPGD 241127Z 2412/2512 01006KT P6SM BKN007
     FM241500 03007KT P6SM SCT020
     FM242000 34009KT P6SM SCT040
     FM250600 VRB03KT P6SM SCT005 BKN035=

USA.gov is the U.S. government's official web portal to all federal, state and local government web resources and services.